Time;durP1;ratioP1;P1;durP2;ratioP2;P2;SDS_P1;SDS_P2;PMS_P1;PMS_P2;Temp;Humidity;BMP_temperature;BMP_pressure;BME280_temperature;BME280_humidity;BME280_pressure;Samples;Min_cycle;Max_cycle;Signal;HPM_P1;HPM_P2
2022/12/15 00:39:57;;;;;;;18.80;11.97;;;-9.50;99.90;-10.30;99275.00;;;;5007932;27;87803;-60
2022/12/15 00:42:27;;;;;;;31.77;13.80;;;-9.40;99.90;-10.30;99257.00;;;;5011457;27;88361;-61
2022/12/15 00:44:57;;;;;;;23.67;11.90;;;-9.60;99.90;-10.30;99266.00;;;;5013771;27;88439;-61
2022/12/15 00:47:23;;;;;;;20.40;11.87;;;-9.40;99.90;-10.20;99257.00;;;;5014216;27;103933;-59
2022/12/15 01:20:17;;;;;;;24.00;14.43;;;-9.90;99.90;-10.80;99288.00;;;;5010863;27;88951;-61
2022/12/15 01:22:48;;;;;;;26.00;15.23;;;-10.00;99.90;-10.90;99294.00;;;;5009796;27;88167;-62
2022/12/15 01:25:16;;;;;;;25.13;15.10;;;-9.50;99.90;-10.90;99289.00;;;;5011071;27;87953;-61
2022/12/15 01:27:43;;;;;;;28.63;16.50;;;-10.20;99.90;-11.00;99291.00;;;;5012314;27;88802;-61
2022/12/15 01:30:12;;;;;;;29.87;13.70;;;-10.10;99.90;-11.00;99300.00;;;;5011326;27;87785;-60
2022/12/15 01:32:38;;;;;;;26.53;15.40;;;-10.10;99.90;-11.00;99319.00;;;;5008416;27;88200;-61
2022/12/15 01:35:05;;;;;;;30.77;15.17;;;-10.20;99.90;-10.90;99312.00;;;;5009806;27;118061;-61
2022/12/15 01:37:32;;;;;;;28.20;15.73;;;-10.10;99.90;-10.90;99323.00;;;;4994878;27;101567;-61
2022/12/15 01:42:42;;;;;;;29.03;14.80;;;-9.20;99.90;-10.90;99328.00;;;;5000239;27;88592;-61
2022/12/15 01:45:23;;;;;;;32.23;15.03;;;-10.20;99.90;-10.90;99337.00;;;;4991826;28;96856;-62
2022/12/15 01:47:51;;;;;;;29.60;14.40;;;-10.10;99.90;-10.80;99337.00;;;;4993564;28;117286;-62
2022/12/15 01:50:17;;;;;;;26.57;13.80;;;-10.10;99.90;-10.90;99329.00;;;;4976320;28;88220;-61
2022/12/15 01:52:43;;;;;;;25.30;14.93;;;-10.00;99.90;-10.90;99328.00;;;;4991370;27;100948;-61
2022/12/15 01:55:10;;;;;;;27.87;14.77;;;-10.10;99.90;-10.90;99326.00;;;;4994085;27;99530;-61
2022/12/15 01:57:36;;;;;;;25.83;14.27;;;-10.10;99.90;-10.90;99330.00;;;;4992238;28;117168;-62
2022/12/15 02:00:06;;;;;;;28.77;15.40;;;-10.00;99.90;-10.90;99350.00;;;;4985530;28;111884;-60
2022/12/15 02:02:34;;;;;;;28.30;15.77;;;-10.10;99.90;-10.90;99343.00;;;;4994475;27;87095;-62
2022/12/15 02:05:02;;;;;;;28.43;14.53;;;-10.20;99.90;-10.90;99345.00;;;;4970995;28;88665;-61
2022/12/15 02:07:27;;;;;;;29.00;15.50;;;-10.00;99.90;-10.90;99351.00;;;;4992545;28;89115;-61
2022/12/15 02:09:57;;;;;;;28.43;15.20;;;-10.00;99.90;-10.90;99345.00;;;;4994103;28;89218;-61
2022/12/15 02:12:39;;;;;;;24.27;12.77;;;-10.00;99.90;-10.90;99360.00;;;;4991825;27;87844;-62
2022/12/15 02:15:32;;;;;;;29.10;14.00;;;-10.00;99.90;-10.90;99369.00;;;;4966500;28;88614;-62
2022/12/15 02:18:25;;;;;;;27.53;14.77;;;-10.10;99.90;-10.80;99367.00;;;;4974231;28;109777;-61
2022/12/15 02:21:09;;;;;;;29.83;15.87;;;-10.00;99.90;-10.70;99371.00;;;;4991709;27;87790;-61
2022/12/15 02:24:25;;;;;;;28.30;15.37;;;-9.90;99.90;-10.60;99364.00;;;;4967561;28;97733;-59
2022/12/15 02:27:11;;;;;;;24.83;15.17;;;-9.50;99.90;-10.40;99360.00;;;;4986008;27;89020;-61
2022/12/15 02:29:52;;;;;;;26.77;14.97;;;-9.70;99.90;-10.40;99369.00;;;;4994470;28;88129;-60
2022/12/15 02:32:28;;;;;;;35.20;16.43;;;-9.60;99.90;-10.30;99385.00;;;;4989099;28;87909;-60
2022/12/15 02:35:00;;;;;;;29.53;14.93;;;-9.50;99.90;-10.20;99379.00;;;;4973520;28;102465;-60
2022/12/15 02:37:30;;;;;;;28.97;15.53;;;-9.40;99.90;-10.10;99389.00;;;;4986413;28;107200;-61
2022/12/15 02:39:56;;;;;;;25.87;15.27;;;-9.30;99.90;-10.00;99399.00;;;;4970848;28;90730;-61
2022/12/15 02:42:23;;;;;;;33.97;17.33;;;-9.20;99.90;-9.90;99394.00;;;;5000203;27;87691;-61
2022/12/15 02:45:00;;;;;;;33.83;16.80;;;-9.30;99.90;-9.90;99388.00;;;;5013121;27;100312;-62
2022/12/15 02:51:11;;;;;;;24.67;13.77;;;-8.10;99.90;-9.80;99377.00;;;;5012570;27;87656;-63
2022/12/15 02:54:20;;;;;;;27.87;15.07;;;-9.10;99.90;-9.70;99394.00;;;;5016724;27;87710;-63
2022/12/15 02:57:20;;;;;;;28.43;16.73;;;-9.00;99.90;-9.60;99401.00;;;;5003256;27;86985;-60
2022/12/15 03:00:05;;;;;;;32.30;17.10;;;-8.80;99.90;-9.50;99390.00;;;;5015034;27;87926;-61
2022/12/15 03:02:33;;;;;;;29.33;16.63;;;-8.70;99.90;-9.40;99403.00;;;;5011362;27;88077;-62
2022/12/15 03:05:00;;;;;;;32.17;15.73;;;-8.10;99.90;-9.30;99399.00;;;;5014387;27;88928;-63
2022/12/15 03:07:26;;;;;;;31.50;14.40;;;-8.60;99.90;-9.20;99406.00;;;;5014213;27;88141;-61
2022/12/15 03:09:55;;;;;;;33.67;15.60;;;-8.60;99.90;-9.20;99407.00;;;;5027868;27;88166;-60
2022/12/15 03:12:20;;;;;;;33.93;16.53;;;-8.30;99.90;-9.10;99405.00;;;;5014569;27;88960;-59
2022/12/15 03:14:46;;;;;;;31.30;16.63;;;-8.40;99.90;-9.00;99403.00;;;;5016842;27;98987;-61
2022/12/15 03:17:12;;;;;;;30.87;15.60;;;-8.30;99.90;-8.90;99410.00;;;;5012497;27;108864;-61
2022/12/15 03:19:38;;;;;;;31.13;17.70;;;-8.30;99.90;-8.80;99410.00;;;;5014351;27;117676;-61
2022/12/15 03:22:03;;;;;;;43.00;19.10;;;-8.10;99.90;-8.60;99437.00;;;;5015466;27;117022;-60
2022/12/15 03:24:29;;;;;;;38.80;18.23;;;-7.90;99.90;-8.60;99423.00;;;;5014700;27;113963;-62
2022/12/15 03:26:55;;;;;;;47.37;19.40;;;-7.90;99.90;-8.50;99428.00;;;;5020894;27;107874;-62
2022/12/15 03:29:21;;;;;;;37.30;18.30;;;-7.80;99.90;-8.40;99433.00;;;;5014016;27;118693;-62
2022/12/15 03:31:47;;;;;;;37.03;18.53;;;-7.80;99.90;-8.30;99432.00;;;;5015629;27;89552;-62
2022/12/15 03:34:13;;;;;;;33.23;18.13;;;-7.70;99.90;-8.20;99432.00;;;;5015986;27;87792;-62
2022/12/15 03:36:39;;;;;;;34.27;18.07;;;-7.40;99.90;-8.20;99428.00;;;;5014963;27;107364;-63
2022/12/15 03:39:05;;;;;;;37.77;19.57;;;-7.50;99.90;-8.10;99438.00;;;;5013720;27;101813;-62
2022/12/15 03:41:31;;;;;;;39.53;17.93;;;-6.90;99.90;-8.00;99432.00;;;;5016531;27;88370;-61
2022/12/15 03:43:57;;;;;;;33.63;18.87;;;-7.40;99.90;-8.00;99443.00;;;;5019230;27;87877;-62
2022/12/15 03:46:22;;;;;;;33.27;18.27;;;-7.30;99.90;-7.90;99453.00;;;;5025867;27;107107;-62
2022/12/15 03:48:49;;;;;;;48.20;20.47;;;-7.20;99.90;-7.80;99446.00;;;;5014240;27;88736;-62
2022/12/15 03:51:15;;;;;;;38.03;19.10;;;-7.20;99.90;-7.80;99453.00;;;;5018300;27;88290;-62
2022/12/15 03:53:40;;;;;;;41.70;18.67;;;-7.20;99.90;-7.70;99453.00;;;;5019128;27;113372;-62
2022/12/15 03:56:06;;;;;;;47.20;21.10;;;-7.00;99.90;-7.70;99449.00;;;;5016726;27;98528;-63
2022/12/15 03:58:32;;;;;;;43.30;20.67;;;-7.00;99.90;-7.60;99459.00;;;;5013824;27;108631;-61
2022/12/15 04:00:58;;;;;;;33.00;18.80;;;-7.00;99.90;-7.60;99462.00;;;;5016955;27;112605;-61
2022/12/15 04:03:23;;;;;;;39.10;19.93;;;-7.00;99.90;-7.50;99469.00;;;;5013207;27;111544;-62
2022/12/15 04:05:49;;;;;;;37.80;19.07;;;-6.90;99.90;-7.50;99478.00;;;;5024569;27;107922;-62
2022/12/15 04:08:15;;;;;;;37.07;18.33;;;-6.90;99.90;-7.50;99493.00;;;;5019381;27;111145;-60
2022/12/15 04:10:42;;;;;;;37.30;20.30;;;-6.80;99.90;-7.50;99491.00;;;;5017377;27;87781;-62
2022/12/15 04:13:10;;;;;;;40.97;21.53;;;-6.80;99.90;-7.40;99506.00;;;;5016317;27;88483;-61
2022/12/15 04:15:38;;;;;;;35.00;19.67;;;-6.80;99.90;-7.40;99505.00;;;;5019047;27;89095;-62
2022/12/15 04:18:08;;;;;;;31.87;17.53;;;-6.80;99.90;-7.40;99500.00;;;;5018718;27;88923;-59
2022/12/15 04:20:35;;;;;;;38.97;18.83;;;-6.80;99.90;-7.40;99507.00;;;;5015825;27;89589;-59
2022/12/15 04:23:00;;;;;;;40.60;19.87;;;-6.70;99.90;-7.40;99507.00;;;;5020692;27;87998;-61
2022/12/15 05:31:53;;;;;;;39.63;18.30;;;-6.20;99.90;-7.00;99599.00;;;;5012759;27;86968;-62
2022/12/15 05:34:21;;;;;;;31.13;18.97;;;-6.20;99.90;-7.00;99601.00;;;;5014037;27;88613;-63
2022/12/15 05:36:48;;;;;;;33.57;17.27;;;-6.30;99.90;-7.00;99595.00;;;;5017468;27;87789;-62
2022/12/15 05:39:13;;;;;;;42.03;18.67;;;-6.40;99.90;-7.00;99592.00;;;;5025446;27;88819;-60
2022/12/15 05:41:39;;;;;;;41.93;20.17;;;-6.30;99.90;-7.10;99598.00;;;;5011584;27;87859;-62
2022/12/15 05:44:05;;;;;;;32.23;16.60;;;-6.00;99.90;-7.10;99606.00;;;;5008240;27;114617;-61
2022/12/15 05:46:31;;;;;;;29.30;16.77;;;-6.40;99.90;-7.20;99616.00;;;;5017219;27;88530;-62
2022/12/15 05:48:56;;;;;;;40.40;17.90;;;-6.40;99.90;-7.30;99609.00;;;;5018353;27;111505;-62
2022/12/15 05:51:22;;;;;;;34.17;17.03;;;-6.00;99.90;-7.40;99620.00;;;;5016200;27;87783;-61
2022/12/15 05:53:48;;;;;;;38.13;17.43;;;-6.70;99.90;-7.50;99604.00;;;;5017432;27;118303;-62
2022/12/15 05:56:14;;;;;;;30.07;19.07;;;-6.00;99.90;-7.60;99621.00;;;;5012254;27;105041;-62
2022/12/15 05:58:41;;;;;;;37.93;18.77;;;-6.80;99.90;-7.70;99616.00;;;;5028222;27;106681;-60
2022/12/15 06:01:13;;;;;;;37.03;18.07;;;-6.90;99.90;-7.80;99615.00;;;;5016426;27;87678;-61
2022/12/15 06:03:40;;;;;;;35.07;18.03;;;-7.00;99.90;-7.90;99608.00;;;;5016092;27;112150;-60
2022/12/15 06:06:08;;;;;;;33.77;17.57;;;-7.20;99.90;-8.00;99612.00;;;;5010228;27;89271;-61
2022/12/15 06:08:37;;;;;;;35.33;17.63;;;-7.30;99.90;-8.20;99605.00;;;;5016206;27;90214;-61
2022/12/15 06:11:04;;;;;;;29.53;15.87;;;-7.40;99.90;-8.30;99627.00;;;;5018896;27;87636;-62
2022/12/15 06:13:33;;;;;;;29.67;16.47;;;-7.50;99.90;-8.40;99609.00;;;;5014806;27;108511;-62
2022/12/15 06:16:06;;;;;;;37.70;18.93;;;-7.70;99.90;-8.40;99622.00;;;;5021188;27;88483;-61
2022/12/15 06:18:35;;;;;;;28.77;15.17;;;-7.60;99.90;-8.50;99638.00;;;;5010569;27;105524;-61
2022/12/15 06:21:12;;;;;;;29.87;16.63;;;-7.80;99.90;-8.60;99633.00;;;;5017664;27;87086;-61
2022/12/15 06:23:39;;;;;;;34.43;15.73;;;-7.80;99.90;-8.70;99647.00;;;;5015272;27;109743;-59
2022/12/15 06:26:26;;;;;;;34.27;16.43;;;-8.00;99.90;-8.90;99653.00;;;;5012960;27;108710;-61
2022/12/15 06:28:56;;;;;;;28.70;14.53;;;-8.00;99.90;-8.90;99654.00;;;;5016423;27;106600;-61
2022/12/15 06:31:24;;;;;;;33.53;15.13;;;-8.00;99.90;-9.00;99663.00;;;;5016672;27;88227;-60
2022/12/15 06:33:54;;;;;;;44.23;15.73;;;-7.80;99.90;-9.10;99665.00;;;;5011221;27;88890;-62
2022/12/15 06:36:22;;;;;;;34.07;17.60;;;-8.30;99.90;-9.20;99663.00;;;;5023178;27;88594;-62
2022/12/15 06:38:49;;;;;;;39.70;17.47;;;-7.70;99.90;-9.20;99667.00;;;;5016626;27;87866;-61
2022/12/15 06:41:18;;;;;;;29.83;16.17;;;-8.50;99.90;-9.20;99675.00;;;;5015001;27;87805;-61
2022/12/15 06:43:52;;;;;;;32.87;15.93;;;-8.50;99.90;-9.30;99672.00;;;;5008076;27;102246;-61
2022/12/15 06:46:18;;;;;;;34.77;18.30;;;-8.50;99.90;-9.30;99674.00;;;;5010772;27;88171;-61
2022/12/15 06:48:45;;;;;;;32.13;17.80;;;-8.50;99.90;-9.30;99681.00;;;;5007472;27;87695;-60
2022/12/15 06:51:14;;;;;;;39.90;19.10;;;-8.60;99.90;-9.40;99690.00;;;;5010013;27;88117;-61
2022/12/15 06:53:41;;;;;;;30.30;16.73;;;-8.60;99.90;-9.50;99691.00;;;;5012649;27;89182;-61
2022/12/15 06:56:30;;;;;;;27.10;16.10;;;-8.70;99.90;-9.50;99693.00;;;;5008233;27;89598;-61
2022/12/15 06:58:57;;;;;;;36.30;19.73;;;-8.70;99.90;-9.50;99698.00;;;;5008982;27;87908;-62
2022/12/15 07:01:24;;;;;;;43.73;19.50;;;-8.70;99.90;-9.50;99698.00;;;;5005846;27;88043;-61
2022/12/15 07:03:51;;;;;;;33.37;17.80;;;-8.80;99.90;-9.60;99703.00;;;;5005572;27;96041;-61
2022/12/15 07:06:17;;;;;;;40.60;24.03;;;-8.80;99.90;-9.60;99715.00;;;;5006261;27;88932;-61
2022/12/15 07:08:48;;;;;;;38.57;20.50;;;-8.90;99.90;-9.70;99716.00;;;;5008298;27;87685;-63
2022/12/15 07:11:13;;;;;;;45.53;21.63;;;-9.60;99.90;-9.70;99711.00;;;;5008967;27;86992;-61
2022/12/15 07:13:39;;;;;;;44.20;19.23;;;-8.80;99.90;-9.80;99718.00;;;;5010572;27;117021;-61
2022/12/15 07:16:06;;;;;;;38.03;20.13;;;-9.10;99.90;-9.80;99711.00;;;;5011253;27;89979;-59
2022/12/15 07:18:32;;;;;;;40.00;20.80;;;-8.90;99.90;-9.90;99715.00;;;;5011928;27;88629;-61
2022/12/15 07:21:04;;;;;;;44.03;22.23;;;-9.10;99.90;-9.90;99724.00;;;;5014638;27;88035;-60
2022/12/15 07:23:30;;;;;;;43.90;21.67;;;-9.60;99.90;-10.00;99716.00;;;;5014092;27;89406;-62
2022/12/15 07:25:56;;;;;;;45.10;21.57;;;-9.10;99.90;-10.00;99711.00;;;;5010242;27;108028;-59
2022/12/15 07:28:22;;;;;;;40.97;21.13;;;-9.20;99.90;-10.10;99708.00;;;;5010146;27;93168;-61
2022/12/15 07:30:47;;;;;;;39.17;20.00;;;-9.30;99.90;-10.10;99712.00;;;;5011454;27;108912;-61
2022/12/15 07:33:14;;;;;;;34.03;18.83;;;-9.20;99.90;-10.10;99712.00;;;;5009600;27;118365;-63
2022/12/15 07:35:40;;;;;;;38.90;18.00;;;-9.30;99.90;-10.20;99707.00;;;;5014398;27;88705;-60
2022/12/15 07:38:07;;;;;;;31.30;17.43;;;-9.40;99.90;-10.20;99729.00;;;;5011354;27;109385;-60
2022/12/15 07:40:33;;;;;;;34.80;18.10;;;-8.60;99.90;-10.10;99714.00;;;;5011242;27;87684;-62
2022/12/15 07:42:59;;;;;;;34.80;16.53;;;-9.30;99.90;-9.90;99720.00;;;;5011920;27;89072;-61
2022/12/15 07:45:25;;;;;;;35.07;19.50;;;-9.20;99.90;-9.60;99715.00;;;;5010783;27;104015;-60
2022/12/15 07:47:52;;;;;;;43.63;19.60;;;-8.50;99.90;-9.40;99731.00;;;;5013316;27;113957;-61
2022/12/15 07:50:19;;;;;;;48.90;24.10;;;-8.80;99.90;-9.20;99737.00;;;;5011948;27;87816;-62
2022/12/15 07:52:45;;;;;;;40.83;20.87;;;-8.50;99.90;-9.00;99729.00;;;;5010079;27;116734;-60
2022/12/15 07:55:11;;;;;;;39.80;21.53;;;-8.30;99.90;-8.80;99722.00;;;;5011773;27;108842;-62
2022/12/15 07:57:37;;;;;;;41.67;22.63;;;-8.20;99.90;-8.60;99721.00;;;;5010878;27;113006;-62
2022/12/15 08:00:04;;;;;;;54.37;27.40;;;-8.00;99.90;-8.30;99727.00;;;;5014139;27;87058;-61
2022/12/15 08:02:30;;;;;;;43.93;23.03;;;-7.70;99.90;-8.10;99745.00;;;;5006499;27;89223;-61
2022/12/15 08:04:56;;;;;;;35.57;22.17;;;-7.40;99.90;-8.00;99750.00;;;;5012185;27;116973;-60
2022/12/15 08:07:22;;;;;;;37.83;21.53;;;-7.00;99.90;-7.90;99752.00;;;;5006731;27;113003;-61
2022/12/15 08:09:47;;;;;;;35.47;20.40;;;-7.20;99.90;-7.90;99747.00;;;;5012216;27;108788;-61
2022/12/15 08:12:13;;;;;;;40.80;22.40;;;-6.30;99.90;-7.70;99744.00;;;;5012074;27;88010;-61
2022/12/15 08:14:39;;;;;;;41.87;22.60;;;-7.10;99.90;-7.40;99759.00;;;;5012165;27;88610;-60
2022/12/15 08:17:05;;;;;;;41.50;21.53;;;-6.00;99.90;-7.20;99765.00;;;;5011805;27;111781;-61
2022/12/15 08:19:30;;;;;;;38.30;21.37;;;-6.40;99.90;-6.90;99763.00;;;;5010895;27;109934;-61
2022/12/15 08:21:57;;;;;;;41.57;20.70;;;-6.40;99.90;-6.70;99772.00;;;;5010649;27;112741;-61
2022/12/15 08:24:22;;;;;;;36.60;20.50;;;-6.20;99.90;-6.50;99777.00;;;;5011135;27;88370;-61
2022/12/15 08:26:48;;;;;;;38.67;20.93;;;-5.70;99.90;-6.20;99770.00;;;;5007134;27;114253;-61
2022/12/15 08:29:14;;;;;;;32.43;18.57;;;-5.70;99.90;-6.00;99777.00;;;;5012459;27;87947;-61
2022/12/15 08:31:40;;;;;;;31.90;16.97;;;-5.40;99.90;-5.80;99793.00;;;;5010518;27;118718;-60
2022/12/15 08:34:06;;;;;;;33.93;17.57;;;-5.30;99.90;-5.80;99779.00;;;;5010765;27;89546;-60
2022/12/15 08:36:32;;;;;;;39.17;18.17;;;-5.30;99.90;-5.70;99780.00;;;;5011073;27;88229;-61
2022/12/15 08:39:00;;;;;;;30.37;16.67;;;-5.10;99.90;-5.50;99788.00;;;;5010780;27;87868;-61
2022/12/15 08:41:29;;;;;;;34.43;18.90;;;-5.00;99.90;-5.30;99799.00;;;;5011762;27;89251;-57
2022/12/15 08:43:57;;;;;;;32.63;17.17;;;-4.70;99.90;-5.00;99795.00;;;;5012287;27;89284;-59
2022/12/15 08:46:29;;;;;;;37.17;18.07;;;-4.60;99.90;-4.80;99810.00;;;;5010602;27;87809;-60
2022/12/15 08:48:57;;;;;;;23.63;14.23;;;-4.30;99.90;-4.70;99808.00;;;;5012856;27;86994;-61
2022/12/15 08:51:26;;;;;;;26.67;14.97;;;-4.20;99.90;-4.40;99805.00;;;;5011785;27;88764;-61
2022/12/15 08:53:54;;;;;;;28.27;16.67;;;-4.00;99.90;-4.20;99808.00;;;;5011646;27;89459;-61
2022/12/15 08:56:21;;;;;;;31.17;16.13;;;-3.80;99.90;-4.00;99806.00;;;;5011874;27;88874;-62
2022/12/15 08:58:49;;;;;;;34.37;17.57;;;-3.60;99.90;-3.70;99819.00;;;;5005093;27;88079;-60
2022/12/15 09:01:21;;;;;;;36.27;17.57;;;-3.20;99.90;-3.40;99809.00;;;;5006541;27;88575;-60
2022/12/15 09:03:48;;;;;;;25.47;16.10;;;-3.00;99.90;-3.20;99826.00;;;;5010172;27;87880;-62
2022/12/15 09:06:19;;;;;;;21.37;15.17;;;-2.80;99.90;-3.00;99823.00;;;;5011378;27;87824;-62
2022/12/15 09:08:45;;;;;;;22.60;13.97;;;-2.60;99.90;-2.80;99831.00;;;;5004599;27;87890;-62
2022/12/15 09:11:11;;;;;;;20.33;12.10;;;-2.30;99.90;-2.60;99819.00;;;;5010600;27;117610;-60
2022/12/15 09:13:38;;;;;;;29.30;12.63;;;-2.20;99.90;-2.40;99803.00;;;;5009258;27;108243;-60
2022/12/15 09:16:08;;;;;;;15.57;11.23;;;-1.30;99.90;-2.20;99806.00;;;;5012301;27;87926;-61
2022/12/15 09:18:34;;;;;;;21.87;12.00;;;-1.90;99.90;-2.00;99810.00;;;;5009254;27;87912;-64
2022/12/15 09:21:06;;;;;;;14.90;10.03;;;-1.60;99.90;-1.80;99803.00;;;;5008024;27;118687;-63
2022/12/15 09:23:32;;;;;;;21.40;11.87;;;-1.40;99.90;-1.60;99802.00;;;;5008986;27;89721;-64
2022/12/15 09:26:09;;;;;;;20.33;12.00;;;-1.30;99.90;-1.40;99808.00;;;;5005558;27;104857;-63
2022/12/15 09:28:36;;;;;;;16.90;10.30;;;-0.60;99.90;-1.30;99820.00;;;;5006661;27;95640;-63
2022/12/15 09:31:07;;;;;;;17.23;10.40;;;-0.90;99.90;-1.10;99818.00;;;;5010853;27;88595;-63
2022/12/15 09:33:33;;;;;;;17.70;10.87;;;-0.70;99.90;-0.90;99822.00;;;;5011390;27;88478;-64
2022/12/15 09:35:58;;;;;;;15.90;10.43;;;-0.70;99.90;-0.70;99824.00;;;;5011104;27;103105;-62
2022/12/15 09:38:24;;;;;;;17.60;9.63;;;-0.50;99.90;-0.50;99806.00;;;;5010687;27;109758;-63
2022/12/15 09:40:50;;;;;;;16.03;9.80;;;-0.20;99.90;-0.20;99808.00;;;;5009621;27;88301;-64
2022/12/15 09:43:23;;;;;;;17.30;10.70;;;0.00;99.90;0.00;99823.00;;;;5009443;27;117132;-63
2022/12/15 09:46:03;;;;;;;18.33;9.93;;;0.20;99.90;0.00;99805.00;;;;5006580;27;88824;-64
2022/12/15 09:48:38;;;;;;;14.90;9.23;;;0.40;99.90;0.00;99812.00;;;;5007830;27;87978;-62
2022/12/15 09:51:11;;;;;;;13.23;9.80;;;0.40;99.90;-0.10;99820.00;;;;5006021;27;89174;-64
2022/12/15 09:53:37;;;;;;;11.30;8.40;;;0.30;99.90;-0.10;99826.00;;;;5006472;27;87812;-62
2022/12/15 09:56:12;;;;;;;14.47;9.40;;;0.20;99.90;-0.10;99830.00;;;;5011053;27;97949;-63
2022/12/15 09:59:04;;;;;;;14.93;9.77;;;0.30;99.90;-0.10;99830.00;;;;5009186;27;101106;-63
2022/12/15 10:02:12;;;;;;;18.47;9.83;;;0.20;99.90;0.10;99839.00;;;;5009740;27;89004;-63
2022/12/15 10:05:33;;;;;;;21.13;9.53;;;0.40;99.90;0.20;99832.00;;;;4957007;27;111328;-62
2022/12/15 10:07:59;;;;;;;14.70;8.63;;;0.50;99.90;0.20;99834.00;;;;5006830;27;89074;-63
2022/12/15 10:10:37;;;;;;;11.07;8.67;;;0.50;99.90;0.20;99837.00;;;;5010304;27;106158;-62
2022/12/15 10:13:23;;;;;;;16.37;9.50;;;0.50;99.90;0.10;99837.00;;;;5008890;27;99844;-62
2022/12/15 10:15:57;;;;;;;16.40;9.47;;;0.40;99.90;0.20;99841.00;;;;5008283;27;102080;-63
2022/12/15 10:18:35;;;;;;;18.93;10.60;;;0.50;99.90;0.40;99842.00;;;;5002844;27;102352;-62
2022/12/15 10:21:01;;;;;;;17.63;10.47;;;0.60;99.90;0.50;99850.00;;;;5010006;27;102062;-62
2022/12/15 10:23:27;;;;;;;12.67;9.30;;;0.80;99.90;0.60;99850.00;;;;5009331;27;113030;-62
2022/12/15 10:26:16;;;;;;;12.97;9.40;;;0.80;99.90;0.80;99854.00;;;;5009119;27;117443;-64
2022/12/15 10:29:19;;;;;;;15.10;9.57;;;1.00;99.90;1.00;99861.00;;;;5009720;27;97242;-62
2022/12/15 10:31:53;;;;;;;12.27;8.90;;;1.20;99.90;1.20;99876.00;;;;5010646;27;87187;-63
2022/12/15 10:34:33;;;;;;;12.17;8.40;;;1.40;99.90;1.30;99864.00;;;;5005872;27;88244;-64
2022/12/15 10:36:59;;;;;;;13.50;8.10;;;1.70;99.90;1.50;99872.00;;;;5010101;27;88015;-62
2022/12/15 10:39:38;;;;;;;19.87;10.73;;;1.60;99.90;1.60;99872.00;;;;5007639;27;110580;-63
2022/12/15 10:42:45;;;;;;;15.80;10.50;;;1.80;99.90;1.60;99876.00;;;;5004727;27;88202;-63
2022/12/15 10:45:37;;;;;;;14.97;8.80;;;1.80;99.90;1.50;99870.00;;;;4986523;27;87823;-63
2022/12/15 10:48:05;;;;;;;12.37;9.00;;;1.90;99.90;1.50;99886.00;;;;5009614;27;87741;-65
2022/12/15 10:50:32;;;;;;;15.53;9.17;;;1.80;99.90;1.70;99887.00;;;;5010254;27;87838;-63
2022/12/15 10:52:59;;;;;;;12.27;8.57;;;1.90;99.90;1.70;99891.00;;;;5010415;27;87741;-65
2022/12/15 10:55:42;;;;;;;13.20;7.70;;;1.90;99.90;1.80;99888.00;;;;5009380;27;89120;-63
2022/12/15 10:58:22;;;;;;;17.83;9.23;;;2.60;99.90;1.90;99891.00;;;;5007100;27;87809;-63
2022/12/15 11:01:07;;;;;;;11.60;7.50;;;2.20;99.90;2.10;99882.00;;;;5007509;27;88046;-65
2022/12/15 11:03:37;;;;;;;14.20;8.57;;;2.20;99.90;2.00;99893.00;;;;5009685;27;87855;-64
2022/12/15 11:06:15;;;;;;;12.60;8.63;;;2.20;99.90;2.00;99889.00;;;;5006374;27;88826;-66
2022/12/15 11:08:42;;;;;;;12.73;7.27;;;2.20;99.90;1.90;99892.00;;;;5005426;27;88147;-66
2022/12/15 11:14:24;;;;;;;15.07;7.27;;;2.10;99.90;2.00;99892.00;;;;5000336;27;87777;-63
2022/12/15 11:16:54;;;;;;;10.90;6.27;;;2.20;99.90;2.10;99882.00;;;;5009447;27;88183;-63
2022/12/15 11:19:39;;;;;;;11.03;7.47;;;2.30;99.90;2.20;99888.00;;;;5010383;27;88448;-63
2022/12/15 11:22:14;;;;;;;10.73;7.50;;;2.40;99.90;2.30;99886.00;;;;5003004;27;87753;-64
2022/12/15 11:25:09;;;;;;;10.63;7.23;;;2.40;99.80;2.40;99890.00;;;;5009651;27;87201;-64
2022/12/15 11:27:42;;;;;;;12.37;7.30;;;3.20;99.90;2.50;99891.00;;;;5006391;27;87690;-63
2022/12/15 11:30:17;;;;;;;11.90;7.93;;;2.70;99.90;2.70;99892.00;;;;5004574;27;88922;-63
2022/12/15 11:33:09;;;;;;;12.23;8.17;;;2.90;99.90;2.90;99889.00;;;;5006456;27;91645;-63
2022/12/15 11:36:09;;;;;;;8.87;7.33;;;2.90;99.90;3.10;99895.00;;;;5004721;27;87866;-63
2022/12/15 11:39:10;;;;;;;10.73;6.90;;;3.70;99.90;3.30;99909.00;;;;5005116;27;88069;-64
2022/12/15 11:41:52;;;;;;;13.40;7.93;;;3.40;99.90;3.40;99905.00;;;;5006879;27;87989;-65
2022/12/15 11:44:59;;;;;;;12.77;7.97;;;3.60;99.00;3.30;99902.00;;;;5004632;27;102063;-64
2022/12/15 11:47:39;;;;;;;9.73;6.63;;;3.50;98.00;3.30;99901.00;;;;5002904;27;101804;-64
2022/12/15 11:50:31;;;;;;;12.27;7.50;;;3.40;97.70;3.20;99901.00;;;;5007033;27;89203;-63
2022/12/15 11:53:50;;;;;;;13.70;7.73;;;3.30;96.70;3.10;99895.00;;;;4993148;27;87931;-64
2022/12/15 11:56:30;;;;;;;12.73;7.63;;;3.20;97.00;3.20;99887.00;;;;5005011;27;87963;-63
2022/12/15 11:59:33;;;;;;;11.80;6.20;;;3.40;97.50;3.20;99885.00;;;;5004566;27;100690;-65
2022/12/15 12:02:43;;;;;;;10.80;7.63;;;3.50;97.20;3.20;99898.00;;;;5009445;27;89459;-65
2022/12/15 12:05:43;;;;;;;13.63;7.87;;;3.50;97.00;3.20;99895.00;;;;5007899;27;88372;-65
2022/12/15 12:08:29;;;;;;;9.03;7.10;;;3.40;96.60;3.40;99888.00;;;;5012615;27;87844;-64
2022/12/15 12:11:14;;;;;;;9.73;6.93;;;3.60;97.50;3.50;99890.00;;;;5011263;27;87907;-64
2022/12/15 12:14:09;;;;;;;13.57;7.90;;;3.60;96.50;3.40;99902.00;;;;5006374;27;89487;-64
2022/12/15 12:16:59;;;;;;;13.33;7.73;;;3.50;95.40;3.30;99905.00;;;;5013170;27;88001;-63
2022/12/15 12:19:50;;;;;;;9.93;7.00;;;3.50;95.00;3.30;99903.00;;;;5006099;27;104696;-62
2022/12/15 12:22:28;;;;;;;9.33;6.63;;;3.40;96.00;3.40;99891.00;;;;5001536;27;100636;-63
2022/12/15 12:25:20;;;;;;;9.33;6.50;;;3.50;96.40;3.50;99891.00;;;;5009603;27;109615;-64
2022/12/15 12:28:04;;;;;;;9.43;6.80;;;3.70;95.70;3.50;99894.00;;;;4979316;27;110575;-63
2022/12/15 12:30:41;;;;;;;12.37;6.23;;;3.70;95.20;3.50;99892.00;;;;5008119;27;103077;-63
2022/12/15 12:33:37;;;;;;;12.40;7.60;;;3.70;95.30;3.40;99898.00;;;;4997314;27;104933;-64
2022/12/15 12:36:10;;;;;;;11.23;6.90;;;3.60;94.70;3.40;99903.00;;;;5008073;27;89463;-63
2022/12/15 12:38:45;;;;;;;7.77;6.27;;;3.50;94.70;3.40;99906.00;;;;5008796;27;87955;-63
2022/12/15 12:41:38;;;;;;;12.07;7.73;;;3.50;95.10;3.40;99900.00;;;;5006168;27;88867;-62
2022/12/15 12:44:31;;;;;;;9.23;6.00;;;3.60;94.80;3.50;99906.00;;;;4989973;27;88253;-64
2022/12/15 12:47:08;;;;;;;13.27;6.77;;;3.60;95.60;3.60;99901.00;;;;4971064;28;88119;-65
2022/12/15 12:49:58;;;;;;;10.83;7.50;;;3.70;95.60;3.70;99902.00;;;;4992646;27;110462;-63
2022/12/15 12:52:33;;;;;;;11.23;5.80;;;3.80;95.50;3.80;99900.00;;;;4984422;27;87926;-63
2022/12/15 12:55:02;;;;;;;11.87;7.17;;;3.90;95.40;3.80;99905.00;;;;4968293;28;92013;-63
2022/12/15 12:57:38;;;;;;;15.70;7.67;;;3.90;95.30;3.90;99891.00;;;;4969178;28;90243;-64
2022/12/15 13:00:07;;;;;;;15.17;6.60;;;3.90;95.70;3.80;99891.00;;;;4972399;28;88906;-65
2022/12/15 13:02:34;;;;;;;15.03;7.13;;;3.90;94.40;3.80;99881.00;;;;4993377;27;111212;-64
2022/12/15 13:05:04;;;;;;;7.83;6.77;;;3.80;95.00;3.80;99879.00;;;;4988898;27;88150;-65
2022/12/15 13:07:37;;;;;;;11.97;7.37;;;3.80;94.90;3.90;99891.00;;;;4973919;28;101324;-65
2022/12/15 13:10:26;;;;;;;12.97;8.00;;;4.00;94.90;3.80;99888.00;;;;4987602;27;88951;-64
2022/12/15 13:13:29;;;;;;;12.23;6.77;;;4.00;94.30;3.80;99878.00;;;;4991769;27;96221;-65
2022/12/15 13:16:20;;;;;;;8.10;6.27;;;3.80;94.40;3.80;99885.00;;;;4994462;27;87055;-65
2022/12/15 13:19:00;;;;;;;9.43;6.00;;;3.90;94.30;3.60;99878.00;;;;4972229;28;108989;-65
2022/12/15 13:21:44;;;;;;;12.17;7.40;;;3.60;93.70;3.40;99888.00;;;;4996538;27;87901;-65
2022/12/15 13:24:36;;;;;;;11.43;6.23;;;3.60;92.90;3.10;99886.00;;;;4988041;28;88869;-63
2022/12/15 13:27:07;;;;;;;14.83;7.83;;;3.40;92.90;3.00;99883.00;;;;4974125;28;87872;-64
2022/12/15 13:29:52;;;;;;;11.00;5.80;;;3.00;93.10;2.80;99883.00;;;;4990274;27;117119;-64
2022/12/15 13:32:44;;;;;;;9.87;6.80;;;2.90;93.60;2.60;99892.00;;;;4956632;28;91037;-65
2022/12/15 13:35:13;;;;;;;9.47;6.57;;;2.90;93.10;2.70;99881.00;;;;4988363;27;87989;-65